createdAt,value
2023-04-19T20:51:18.602Z,32.88
2023-04-19T20:53:45.946Z,36.42
2023-04-19T20:56:15.687Z,55.63
2023-04-19T20:58:42.837Z,35.28
2023-04-19T21:01:13.281Z,38.90
2023-04-19T21:03:44.251Z,31.88
2023-04-19T21:06:14.323Z,26.52
2023-04-19T21:08:44.447Z,23.40
2023-04-19T21:11:14.238Z,23.92
2023-04-19T21:13:44.322Z,22.10
2023-04-19T21:16:12.708Z,21.30
2023-04-19T21:18:39.854Z,20.83
2023-04-19T21:21:12.528Z,22.15
2023-04-19T21:23:41.938Z,22.83
2023-04-19T21:26:12.831Z,22.77
2023-04-19T21:28:40.650Z,20.42
2023-04-19T21:31:08.153Z,17.88
2023-04-19T21:33:38.188Z,19.75
2023-04-19T21:36:09.100Z,17.77
2023-04-19T21:38:36.555Z,17.33
2023-04-19T21:41:03.888Z,15.82
2023-04-19T21:43:32.151Z,19.35
2023-04-19T21:45:59.473Z,18.02
2023-04-19T21:48:26.697Z,16.75
2023-04-19T21:50:53.842Z,16.15
2023-04-19T21:53:26.681Z,18.05
2023-04-19T21:55:54.031Z,19.85
2023-04-19T21:58:23.192Z,16.55
2023-04-19T22:00:50.616Z,16.05
2023-04-19T22:03:17.741Z,16.48
2023-04-19T22:05:48.354Z,18.00
2023-04-19T22:08:18.239Z,23.95
2023-04-19T22:10:46.580Z,30.17
2023-04-19T22:13:14.524Z,26.52
2023-04-19T22:15:44.378Z,28.55
2023-04-19T22:18:12.034Z,25.60
2023-04-19T22:20:39.951Z,22.63
2023-04-19T22:23:07.132Z,18.23
2023-04-19T22:25:37.150Z,15.23
2023-04-19T22:28:07.262Z,16.40
2023-04-19T22:30:35.099Z,15.75
2023-04-19T22:33:02.289Z,16.55
2023-04-19T22:35:29.333Z,20.05
2023-04-19T22:37:56.273Z,17.00
2023-04-19T22:40:23.387Z,20.83
2023-04-19T22:42:50.611Z,20.17
2023-04-19T22:45:17.657Z,16.25
2023-04-19T22:47:45.486Z,16.05
2023-04-19T22:50:12.535Z,19.67
2023-04-19T22:52:39.561Z,16.77
2023-04-19T22:55:07.392Z,14.18
2023-04-19T22:57:34.380Z,15.98
2023-04-19T23:00:01.368Z,16.60
2023-04-19T23:02:28.413Z,16.13
2023-04-19T23:04:55.695Z,16.38
2023-04-19T23:07:22.930Z,14.23
2023-04-19T23:09:51.370Z,15.43
2023-04-19T23:12:18.437Z,15.65
2023-04-19T23:14:48.689Z,14.93
2023-04-19T23:17:18.458Z,15.10
2023-04-19T23:19:45.412Z,13.60
2023-04-19T23:22:12.541Z,14.30
2023-04-19T23:24:39.590Z,16.77
2023-04-19T23:27:07.111Z,13.73
2023-04-19T23:29:34.130Z,13.50
2023-04-19T23:32:02.292Z,14.75
2023-04-19T23:34:29.456Z,15.05
2023-04-19T23:36:56.986Z,18.75
2023-04-19T23:39:23.969Z,16.10
2023-04-19T23:41:51.222Z,17.00
2023-04-19T23:44:18.257Z,13.63
2023-04-19T23:46:45.314Z,15.18
2023-04-19T23:49:12.384Z,16.92
2023-04-19T23:51:39.325Z,17.52
2023-04-19T23:54:06.407Z,17.70
2023-04-19T23:56:33.597Z,17.55
2023-04-19T23:59:00.535Z,16.55
